Time;durP1;ratioP1;P1;durP2;ratioP2;P2;SDS_P1;SDS_P2;PMS_P1;PMS_P2;Temp;Humidity;BMP_temperature;BMP_pressure;BME280_temperature;BME280_humidity;BME280_pressure;Samples;Min_cycle;Max_cycle;Signal;HPM_P1;HPM_P2
2021/08/06 00:01:00;;;;;;;2.10;0.88;;;;;;;17.40;82.02;95523.81;5241293;56;20145;-72
2021/08/06 00:06:03;;;;;;;1.13;1.05;;;;;;;17.55;81.95;95518.59;5241200;56;20161;-71
2021/08/06 00:11:06;;;;;;;1.08;0.93;;;;;;;17.46;82.00;95519.66;5241151;56;20126;-71
2021/08/06 00:16:08;;;;;;;0.93;0.82;;;;;;;17.47;83.09;95517.63;5240794;56;20139;-71
2021/08/06 00:21:10;;;;;;;1.08;1.00;;;;;;;17.33;83.26;95525.16;5240738;56;20117;-72
2021/08/06 00:26:13;;;;;;;1.00;1.00;;;;;;;17.36;84.09;95523.38;5241035;56;20130;-71
2021/08/06 00:31:15;;;;;;;0.98;0.98;;;;;;;17.31;83.86;95516.56;5240975;56;20586;-71
2021/08/06 00:36:18;;;;;;;1.77;0.85;;;;;;;17.17;84.39;95512.91;5240909;56;20117;-70
2021/08/06 00:41:21;;;;;;;0.90;0.90;;;;;;;17.12;84.04;95508.16;5241207;56;20126;-71
2021/08/06 00:46:24;;;;;;;0.70;0.70;;;;;;;17.00;85.28;95509.56;5240672;56;20656;-71
2021/08/06 00:51:27;;;;;;;1.00;0.85;;;;;;;17.10;84.91;95502.34;5240597;56;20802;-71
2021/08/06 00:56:30;;;;;;;1.05;1.00;;;;;;;17.03;84.71;95508.50;5240216;56;20130;-71
2021/08/06 01:01:35;;;;;;;1.80;0.93;;;;;;;16.79;85.71;95510.56;5240405;56;20234;-71
2021/08/06 01:06:49;;;;;;;1.45;0.85;;;;;;;16.76;86.04;95506.78;5240584;56;20302;-71
2021/08/06 01:11:55;;;;;;;2.15;0.90;;;;;;;16.56;86.70;95498.84;5240608;56;20117;-71
2021/08/06 01:16:58;;;;;;;0.90;0.90;;;;;;;16.35;86.63;95501.28;5240411;56;20139;-71
2021/08/06 01:22:13;;;;;;;1.00;1.00;;;;;;;16.34;86.12;95497.00;5231275;56;20131;-70
2021/08/06 01:27:15;;;;;;;0.77;0.77;;;;;;;16.18;86.66;95494.34;5239773;56;20126;-70
2021/08/06 01:32:18;;;;;;;0.75;0.75;;;;;;;16.20;86.73;95495.34;5241194;56;20139;-70
2021/08/06 01:37:20;;;;;;;1.50;0.95;;;;;;;16.13;86.64;95493.13;5243309;56;20689;-72
2021/08/06 01:42:45;;;;;;;0.85;0.85;;;;;;;16.04;86.62;95501.03;5243344;56;20667;-70
2021/08/06 01:47:50;;;;;;;0.80;0.80;;;;;;;15.81;87.21;95499.72;5234279;56;20134;-70
2021/08/06 01:53:00;;;;;;;0.98;0.98;;;;;;;15.68;87.85;95508.63;5243323;56;20582;-72
2021/08/06 01:58:03;;;;;;;1.95;0.90;;;;;;;15.49;87.53;95491.03;5243088;56;20130;-70
2021/08/06 02:03:06;;;;;;;0.98;0.98;;;;;;;15.64;88.01;95491.44;5243043;56;20661;-70
2021/08/06 02:08:10;;;;;;;1.00;1.00;;;;;;;15.65;87.77;95482.56;5242709;56;20222;-69
2021/08/06 02:13:13;;;;;;;0.93;0.90;;;;;;;15.66;87.68;95474.97;5234059;56;20134;-70
2021/08/06 02:18:22;;;;;;;0.90;0.90;;;;;;;15.63;87.86;95479.53;5233737;56;20649;-70
2021/08/06 02:23:26;;;;;;;0.90;0.90;;;;;;;15.54;87.95;95460.38;5242778;56;20147;-70
2021/08/06 02:28:28;;;;;;;0.70;0.70;;;;;;;15.52;88.05;95476.84;5242452;56;20140;-70
2021/08/06 02:33:32;;;;;;;0.90;0.90;;;;;;;15.57;86.93;95461.38;5242568;56;20143;-70
2021/08/06 02:38:35;;;;;;;3.58;1.42;;;;;;;15.41;87.32;95470.53;5242585;56;20116;-70
2021/08/06 02:43:39;;;;;;;1.23;1.13;;;;;;;15.36;87.50;95466.50;5242206;56;20135;-70
2021/08/06 02:48:42;;;;;;;1.20;1.10;;;;;;;15.18;87.93;95449.66;5247846;56;20117;-70
2021/08/06 02:53:44;;;;;;;1.35;1.10;;;;;;;15.07;87.58;95447.69;5260106;56;20131;-70
2021/08/06 02:58:47;;;;;;;0.93;0.93;;;;;;;14.98;87.99;95445.97;5246355;56;20166;-70
2021/08/06 03:03:49;;;;;;;2.72;0.93;;;;;;;14.91;88.13;95451.28;5235678;56;20144;-70
2021/08/06 03:08:52;;;;;;;3.50;0.90;;;;;;;14.88;88.18;95455.13;5243382;56;20126;-70
2021/08/06 03:13:55;;;;;;;3.65;1.42;;;;;;;14.98;88.93;95464.66;5242096;56;20121;-70
2021/08/06 03:18:57;;;;;;;2.03;1.27;;;;;;;15.13;88.74;95467.88;5241718;56;20591;-70
2021/08/06 03:24:00;;;;;;;7.00;1.50;;;;;;;15.21;88.61;95460.53;5242359;56;20148;-70
2021/08/06 03:29:03;;;;;;;1.17;1.17;;;;;;;15.17;88.49;95468.41;5241573;56;20139;-69
2021/08/06 03:34:05;;;;;;;1.40;1.30;;;;;;;15.15;88.22;95464.59;5242276;56;20152;-70
2021/08/06 03:39:07;;;;;;;1.40;1.27;;;;;;;14.98;88.38;95473.00;5241375;56;20148;-70
2021/08/06 03:44:10;;;;;;;3.13;1.40;;;;;;;14.89;88.23;95473.31;5241620;56;20126;-70
2021/08/06 03:49:12;;;;;;;1.85;1.42;;;;;;;14.85;88.72;95481.91;5241339;56;20692;-70
2021/08/06 03:54:14;;;;;;;2.00;1.20;;;;;;;14.89;88.19;95498.34;5241380;56;20122;-70
2021/08/06 03:59:17;;;;;;;1.15;1.05;;;;;;;14.90;87.62;95491.50;5241867;56;20131;-70
2021/08/06 04:04:19;;;;;;;2.90;1.33;;;;;;;14.82;88.21;95493.28;5241589;56;20672;-70
2021/08/06 04:09:22;;;;;;;3.58;1.42;;;;;;;14.77;88.46;95494.81;5241257;56;20126;-70
2021/08/06 04:14:24;;;;;;;1.75;1.42;;;;;;;14.79;88.27;95491.56;5241495;56;20135;-69
2021/08/06 04:19:27;;;;;;;2.45;1.10;;;;;;;14.86;88.01;95485.44;5240747;56;20676;-70
2021/08/06 04:24:29;;;;;;;1.63;1.20;;;;;;;15.14;87.22;95482.56;5240822;56;20661;-70
2021/08/06 04:29:31;;;;;;;5.45;1.30;;;;;;;15.39;87.13;95470.28;5240706;56;20126;-69
2021/08/06 04:34:34;;;;;;;2.22;1.50;;;;;;;15.86;85.34;95463.44;5240866;56;20134;-70
2021/08/06 04:39:36;;;;;;;0.90;0.90;;;;;;;16.20;84.71;95466.72;5241056;56;20130;-70
2021/08/06 04:44:39;;;;;;;1.00;1.00;;;;;;;16.60;83.18;95459.53;5240972;56;20148;-70
2021/08/06 04:49:41;;;;;;;1.00;1.00;;;;;;;16.84;81.72;95462.31;5232085;56;20134;-70
2021/08/06 04:54:43;;;;;;;4.43;1.00;;;;;;;17.03;80.87;95472.22;5240416;56;20135;-69
2021/08/06 04:59:46;;;;;;;0.90;0.90;;;;;;;17.17;81.05;95470.28;5240462;56;20126;-70
2021/08/06 05:04:48;;;;;;;1.25;1.15;;;;;;;17.35;79.71;95466.75;5240541;56;20678;-70
2021/08/06 05:09:51;;;;;;;1.33;1.23;;;;;;;17.44;79.58;95474.75;5244657;56;20919;-70
2021/08/06 05:14:53;;;;;;;1.17;1.13;;;;;;;17.65;78.14;95472.22;5243656;56;20117;-70
2021/08/06 05:19:55;;;;;;;1.80;1.00;;;;;;;17.67;78.85;95478.03;5243774;56;20115;-71
2021/08/06 05:25:02;;;;;;;1.10;1.10;;;;;;;17.86;77.59;95482.34;5243319;56;20737;-71
2021/08/06 05:30:05;;;;;;;1.00;1.00;;;;;;;18.00;77.61;95477.56;5243759;56;20143;-71
2021/08/06 05:35:11;;;;;;;0.95;0.95;;;;;;;18.07;78.10;95465.00;5243654;56;20139;-71
2021/08/06 05:40:13;;;;;;;0.90;0.90;;;;;;;18.01;78.92;95470.66;5243555;56;20108;-71
2021/08/06 05:45:16;;;;;;;1.10;1.00;;;;;;;17.93;77.60;95478.16;5243223;56;20139;-71
2021/08/06 05:50:20;;;;;;;1.60;1.50;;;;;;;18.15;79.22;95483.41;5243350;56;20144;-71
2021/08/06 05:55:22;;;;;;;1.02;1.00;;;;;;;18.43;79.57;95477.38;5243375;56;20117;-71
2021/08/06 06:00:25;;;;;;;1.77;1.10;;;;;;;18.87;78.33;95482.19;5243444;56;20126;-71
2021/08/06 06:05:27;;;;;;;1.13;1.10;;;;;;;19.04;76.79;95476.28;5242711;56;20148;-71
2021/08/06 06:10:30;;;;;;;1.17;1.08;;;;;;;18.79;77.20;95483.38;5233998;56;20240;-71
2021/08/06 06:15:33;;;;;;;0.90;0.90;;;;;;;19.36;73.81;95485.31;5242640;56;20131;-71
2021/08/06 06:20:36;;;;;;;3.08;1.10;;;;;;;19.55;72.16;95477.53;5242501;56;20126;-72
2021/08/06 06:25:38;;;;;;;1.10;1.10;;;;;;;19.74;70.32;95475.31;5241680;56;20704;-74
2021/08/06 06:30:41;;;;;;;2.08;1.42;;;;;;;19.73;71.58;95467.44;5239902;56;20126;-73
2021/08/06 06:35:43;;;;;;;1.40;1.02;;;;;;;20.07;69.11;95473.06;5240956;56;20121;-74
2021/08/06 06:40:46;;;;;;;1.25;1.00;;;;;;;19.71;71.56;95482.03;5232713;56;20134;-72
2021/08/06 06:45:48;;;;;;;2.45;1.13;;;;;;;20.57;68.86;95476.19;5244609;56;20152;-75
2021/08/06 06:50:51;;;;;;;1.20;1.20;;;;;;;20.49;66.53;95478.16;5270437;56;20121;-74
2021/08/06 06:55:54;;;;;;;1.88;1.20;;;;;;;20.75;67.23;95480.06;5247336;56;20109;-73
2021/08/06 07:00:58;;;;;;;1.42;1.20;;;;;;;20.87;65.31;95475.66;5233457;56;20582;-74
2021/08/06 07:06:00;;;;;;;1.30;1.20;;;;;;;21.31;62.94;95482.88;5247011;56;20120;-73
2021/08/06 07:11:04;;;;;;;1.65;1.17;;;;;;;22.50;61.25;95485.88;5247405;56;20117;-74
2021/08/06 07:16:07;;;;;;;1.20;1.20;;;;;;;22.84;60.97;95511.66;5247741;56;20121;-74
2021/08/06 07:21:12;;;;;;;1.25;1.10;;;;;;;21.32;62.23;95520.94;5252191;56;20112;-74
2021/08/06 07:26:14;;;;;;;1.15;1.13;;;;;;;19.70;71.58;95539.38;5248802;56;20602;-72
2021/08/06 07:31:16;;;;;;;1.20;1.15;;;;;;;19.03;76.58;95590.31;5238691;56;20139;-73
2021/08/06 07:36:19;;;;;;;1.95;1.30;;;;;;;18.39;81.67;95602.78;5252565;56;20656;-72
2021/08/06 07:41:22;;;;;;;2.70;1.45;;;;;;;18.00;83.31;95622.94;5264739;56;20155;-72
2021/08/06 07:46:24;;;;;;;3.20;1.15;;;;;;;18.04;84.49;95603.03;5252840;56;20286;-73
2021/08/06 07:51:26;;;;;;;1.70;1.60;;;;;;;18.10;85.94;95615.66;5250936;56;20144;-73
2021/08/06 07:56:29;;;;;;;1.55;1.45;;;;;;;18.40;84.83;95604.31;5244519;56;20134;-72
2021/08/06 08:01:31;;;;;;;1.30;1.27;;;;;;;18.55;83.87;95601.81;5245990;56;20162;-73
2021/08/06 08:06:36;;;;;;;1.40;1.40;;;;;;;18.53;82.73;95602.34;5223143;56;20170;-72
2021/08/06 08:11:38;;;;;;;1.30;1.20;;;;;;;18.49;84.26;95606.75;5243552;56;20122;-72
2021/08/06 08:16:41;;;;;;;1.63;1.52;;;;;;;18.44;84.43;95599.16;5245719;56;20181;-72
2021/08/06 08:21:43;;;;;;;2.97;1.83;;;;;;;18.75;84.18;95606.09;5244197;56;20117;-73
2021/08/06 08:26:46;;;;;;;1.67;1.58;;;;;;;19.26;81.39;95599.06;5242120;56;20234;-72
2021/08/06 08:31:48;;;;;;;2.25;1.42;;;;;;;19.59;77.52;95603.31;5240653;56;20125;-72
2021/08/06 08:36:51;;;;;;;1.35;1.23;;;;;;;20.20;76.07;95613.25;5239611;56;20117;-73
2021/08/06 08:41:54;;;;;;;1.17;1.17;;;;;;;19.93;78.32;95613.31;5240114;56;20139;-72
2021/08/06 08:46:57;;;;;;;1.63;1.30;;;;;;;20.54;75.62;95611.22;5249255;56;20128;-73
2021/08/06 08:51:59;;;;;;;1.40;1.30;;;;;;;21.14;75.31;95599.84;5261480;56;20134;-72
2021/08/06 08:57:02;;;;;;;1.38;1.27;;;;;;;21.08;73.20;95599.97;5260775;56;20148;-72
2021/08/06 09:02:09;;;;;;;1.92;1.30;;;;;;;21.36;74.54;95600.03;5260834;56;20125;-73
2021/08/06 09:07:31;;;;;;;1.58;1.48;;;;;;;21.79;73.03;95607.78;5260638;56;20215;-73
2021/08/06 09:12:56;;;;;;;2.05;1.27;;;;;;;22.04;69.32;95592.00;5260791;56;20116;-73
2021/08/06 09:17:59;;;;;;;2.67;1.25;;;;;;;22.79;70.96;95604.81;5260437;56;20129;-74
2021/08/06 09:23:01;;;;;;;2.28;1.30;;;;;;;23.22;65.14;95598.28;5260645;56;20130;-73
2021/08/06 09:28:04;;;;;;;1.02;1.02;;;;;;;22.90;66.32;95598.06;5259833;56;20108;-72
2021/08/06 09:33:10;;;;;;;1.48;1.00;;;;;;;24.61;60.45;95602.44;5256180;56;20126;-73
2021/08/06 09:38:19;;;;;;;0.95;0.95;;;;;;;24.05;61.21;95609.44;5245502;56;20121;-73
2021/08/06 09:43:22;;;;;;;1.27;1.10;;;;;;;24.24;62.05;95616.16;5239080;56;20144;-74
2021/08/06 09:48:26;;;;;;;1.30;1.17;;;;;;;24.51;62.48;95607.22;5237096;56;20125;-73
2021/08/06 09:53:29;;;;;;;1.15;1.05;;;;;;;22.19;64.45;95596.91;5242177;56;20683;-74
2021/08/06 09:58:32;;;;;;;1.20;1.10;;;;;;;20.91;66.15;95593.25;5237990;56;20139;-74
2021/08/06 10:03:37;;;;;;;1.60;1.10;;;;;;;21.27;67.77;95602.56;5251289;56;20593;-74
2021/08/06 10:08:41;;;;;;;1.48;1.38;;;;;;;21.61;68.54;95605.22;5249736;56;20111;-74
2021/08/06 10:13:44;;;;;;;1.45;1.27;;;;;;;21.96;69.61;95598.88;5256962;56;20120;-75
2021/08/06 10:18:46;;;;;;;1.05;0.98;;;;;;;23.45;62.13;95599.78;5253912;56;20133;-75
2021/08/06 10:23:49;;;;;;;2.00;1.02;;;;;;;24.03;60.70;95593.09;5263017;56;20669;-75
2021/08/06 10:28:52;;;;;;;1.13;1.13;;;;;;;24.19;56.85;95585.34;5262705;56;20203;-74
2021/08/06 10:34:12;;;;;;;3.15;1.20;;;;;;;24.30;54.71;95578.50;5261033;56;20107;-74
2021/08/06 10:39:38;;;;;;;1.33;0.90;;;;;;;24.41;52.97;95572.41;5281594;56;20116;-75
2021/08/06 10:44:57;;;;;;;1.20;1.00;;;;;;;24.34;52.60;95573.19;5263192;56;20134;-74
2021/08/06 10:50:13;;;;;;;4.93;1.08;;;;;;;23.33;57.04;95562.00;5241976;56;20126;-74
2021/08/06 10:55:19;;;;;;;1.00;1.00;;;;;;;22.66;54.33;95545.84;5224569;56;20130;-74
2021/08/06 11:00:36;;;;;;;0.88;0.88;;;;;;;22.86;56.99;95546.97;5241577;56;20224;-74
2021/08/06 11:05:40;;;;;;;3.42;1.27;;;;;;;23.62;57.06;95539.97;5241242;56;20594;-75
2021/08/06 11:10:44;;;;;;;3.08;1.10;;;;;;;23.25;57.22;95535.13;5241725;56;20661;-74
2021/08/06 11:16:08;;;;;;;1.00;1.00;;;;;;;24.01;53.70;95547.75;5256948;56;20138;-74
2021/08/06 11:21:12;;;;;;;1.17;1.00;;;;;;;25.34;46.64;95539.53;5253767;56;20135;-75
2021/08/06 11:26:15;;;;;;;0.98;0.98;;;;;;;25.54;45.90;95546.16;5253389;56;20139;-76
2021/08/06 11:31:19;;;;;;;0.85;0.85;;;;;;;26.39;45.43;95536.91;5262878;56;20125;-75
2021/08/06 11:36:21;;;;;;;1.00;0.95;;;;;;;25.37;46.59;95527.09;5256597;56;20102;-75
2021/08/06 11:41:24;;;;;;;2.47;1.20;;;;;;;26.80;42.44;95529.53;5262360;56;20116;-74
2021/08/06 11:46:26;;;;;;;1.35;1.23;;;;;;;27.35;43.62;95512.53;5261992;56;20129;-75
2021/08/06 11:51:29;;;;;;;1.10;1.10;;;;;;;27.08;44.70;95516.78;5240537;56;20107;-76
2021/08/06 11:56:31;;;;;;;1.23;1.20;;;;;;;26.66;41.88;95509.31;5237406;56;20257;-75
2021/08/06 12:01:33;;;;;;;1.10;1.10;;;;;;;27.29;41.92;95503.56;5232045;56;20125;-76
2021/08/06 12:06:44;;;;;;;1.38;0.90;;;;;;;27.17;40.83;95501.88;5244952;56;20241;-76
2021/08/06 12:11:46;;;;;;;1.17;1.00;;;;;;;27.06;40.97;95496.78;5252273;56;20116;-75
2021/08/06 12:16:49;;;;;;;0.90;0.90;;;;;;;27.21;39.24;95494.41;5245299;56;20164;-75
2021/08/06 12:21:51;;;;;;;2.08;1.30;;;;;;;27.45;41.93;95495.56;5239232;56;20186;-75
2021/08/06 12:26:59;;;;;;;1.15;1.00;;;;;;;27.86;41.28;95490.78;5244348;56;20801;-76
2021/08/06 12:32:13;;;;;;;1.40;1.00;;;;;;;26.42;42.21;95507.38;5260455;56;20120;-74
2021/08/06 12:37:18;;;;;;;0.90;0.90;;;;;;;26.76;41.32;95492.34;5261934;56;20129;-75
2021/08/06 12:42:26;;;;;;;1.40;1.00;;;;;;;26.93;42.25;95483.75;5270544;56;20270;-76
2021/08/06 12:47:53;;;;;;;0.90;0.90;;;;;;;26.46;41.49;95485.00;5282942;56;20137;-73
2021/08/06 12:52:59;;;;;;;1.30;1.20;;;;;;;26.16;44.51;95485.47;5252835;56;20701;-74
2021/08/06 12:58:04;;;;;;;3.28;1.30;;;;;;;26.05;44.85;95480.28;5252362;56;20131;-74
2021/08/06 13:03:06;;;;;;;1.00;1.00;;;;;;;26.71;40.33;95488.41;5239164;56;20135;-74
2021/08/06 13:08:12;;;;;;;1.00;1.00;;;;;;;26.31;43.10;95490.91;5219699;56;20237;-74
2021/08/06 13:13:15;;;;;;;1.23;1.13;;;;;;;26.64;45.79;95488.56;5255835;56;20125;-73
2021/08/06 13:18:17;;;;;;;1.30;1.10;;;;;;;26.66;41.52;95475.28;5248412;56;20135;-74
2021/08/06 13:23:20;;;;;;;1.13;1.02;;;;;;;26.73;42.12;95482.16;5241657;56;20135;-73
2021/08/06 13:28:23;;;;;;;1.63;1.00;;;;;;;27.17;39.87;95477.09;5234437;56;20593;-75
2021/08/06 13:33:26;;;;;;;1.05;1.05;;;;;;;27.01;40.74;95475.88;5264228;56;20134;-76
2021/08/06 13:38:29;;;;;;;1.20;1.08;;;;;;;26.63;37.03;95467.19;5262600;56;20129;-73
2021/08/06 13:43:31;;;;;;;0.80;0.73;;;;;;;26.97;37.68;95464.97;5242248;56;20175;-73
2021/08/06 13:48:34;;;;;;;0.95;0.95;;;;;;;26.12;39.48;95462.50;5230967;56;20126;-73
2021/08/06 13:53:36;;;;;;;1.08;0.90;;;;;;;26.79;41.46;95468.50;5217927;56;20124;-72
2021/08/06 13:58:39;;;;;;;1.42;1.15;;;;;;;26.37;40.92;95465.88;5230140;56;20684;-73
2021/08/06 14:03:41;;;;;;;1.10;1.00;;;;;;;26.12;40.40;95474.53;5237729;56;20130;-74
2021/08/06 14:08:44;;;;;;;2.67;1.20;;;;;;;26.00;40.25;95472.81;5247218;56;20161;-72
2021/08/06 14:13:47;;;;;;;0.88;0.88;;;;;;;26.65;38.67;95473.78;5254304;56;20125;-73
2021/08/06 14:18:50;;;;;;;0.95;0.95;;;;;;;26.77;37.98;95482.50;5263872;56;20692;-73
2021/08/06 14:23:53;;;;;;;0.90;0.90;;;;;;;26.63;37.29;95481.38;5258043;56;20204;-73
2021/08/06 14:28:55;;;;;;;1.98;0.90;;;;;;;26.59;38.66;95476.16;5250625;56;20126;-74
2021/08/06 14:33:57;;;;;;;1.10;0.90;;;;;;;26.57;38.02;95476.00;5239593;56;20117;-75
2021/08/06 14:39:01;;;;;;;2.47;0.98;;;;;;;27.04;40.32;95477.53;5250938;56;20129;-75
2021/08/06 14:44:04;;;;;;;0.98;0.90;;;;;;;27.00;38.88;95480.06;5263294;56;20664;-75
2021/08/06 14:49:07;;;;;;;1.05;1.00;;;;;;;27.34;39.13;95482.66;5262796;56;20129;-74
2021/08/06 14:54:10;;;;;;;2.40;0.90;;;;;;;27.14;37.14;95486.06;5263036;56;20125;-74
2021/08/06 14:59:12;;;;;;;1.40;1.10;;;;;;;26.74;38.62;95492.94;5256016;56;20134;-75
2021/08/06 15:04:15;;;;;;;1.27;1.17;;;;;;;26.06;39.11;95485.38;5250677;56;20134;-76
2021/08/06 15:09:17;;;;;;;0.93;0.93;;;;;;;26.69;40.21;95493.94;5251662;56;20122;-73
2021/08/06 15:14:20;;;;;;;1.23;1.02;;;;;;;26.12;40.32;95482.31;5241936;56;20130;-74
2021/08/06 15:19:24;;;;;;;2.25;1.13;;;;;;;25.55;41.33;95494.69;5241460;56;20165;-75
2021/08/06 15:24:26;;;;;;;1.23;1.02;;;;;;;25.55;42.90;95489.00;5232902;56;20113;-75
2021/08/06 15:29:45;;;;;;;1.30;1.00;;;;;;;25.02;43.42;95485.94;5242480;56;20677;-74
2021/08/06 15:34:47;;;;;;;1.10;1.00;;;;;;;25.17;42.50;95494.25;5241787;56;20155;-74
2021/08/06 15:39:50;;;;;;;0.80;0.80;;;;;;;25.55;43.01;95491.09;5244839;56;20121;-74
2021/08/06 15:44:52;;;;;;;1.20;1.00;;;;;;;24.96;42.25;95485.41;5241013;56;20139;-72
2021/08/06 15:49:55;;;;;;;1.23;1.13;;;;;;;24.94;43.90;95494.47;5246537;56;20121;-73
2021/08/06 15:54:57;;;;;;;1.15;1.08;;;;;;;25.17;43.31;95490.69;5244573;56;20625;-73
2021/08/06 16:00:00;;;;;;;1.83;1.20;;;;;;;24.60;43.75;95510.53;5243179;56;20226;-71
2021/08/06 16:05:02;;;;;;;1.42;1.33;;;;;;;24.29;43.28;95500.78;5240803;56;20130;-73
2021/08/06 16:10:05;;;;;;;1.58;1.00;;;;;;;24.28;44.43;95497.19;5241211;56;20364;-74
2021/08/06 16:15:09;;;;;;;2.40;1.10;;;;;;;24.64;44.70;95494.69;5246541;56;20147;-74
2021/08/06 16:20:12;;;;;;;1.13;1.10;;;;;;;24.34;45.82;95489.25;5244017;56;20125;-73
2021/08/06 16:25:14;;;;;;;1.00;1.00;;;;;;;24.37;45.44;95495.81;5255050;56;20115;-73
2021/08/06 16:30:16;;;;;;;1.58;0.90;;;;;;;24.28;44.72;95499.25;5254457;56;20213;-74
2021/08/06 16:35:20;;;;;;;3.08;1.17;;;;;;;24.19;46.66;95504.22;5256176;56;20683;-73
2021/08/06 16:40:22;;;;;;;1.23;1.13;;;;;;;24.21;46.80;95503.63;5259408;56;20762;-72
2021/08/06 16:45:25;;;;;;;0.90;0.90;;;;;;;23.87;45.54;95506.97;5248469;56;20134;-73
2021/08/06 16:50:28;;;;;;;2.25;1.20;;;;;;;24.28;45.77;95508.50;5244598;56;20673;-73
2021/08/06 16:55:30;;;;;;;1.42;1.30;;;;;;;23.79;47.82;95509.06;5262148;56;20107;-73
2021/08/06 17:00:33;;;;;;;1.55;1.20;;;;;;;23.68;48.71;95503.09;5245159;56;20113;-72
2021/08/06 17:05:36;;;;;;;4.85;1.65;;;;;;;23.55;48.78;95501.25;5248609;56;20300;-74
2021/08/06 17:10:42;;;;;;;2.78;1.10;;;;;;;23.74;47.90;95501.56;5248313;56;20147;-73
2021/08/06 17:15:46;;;;;;;1.83;1.20;;;;;;;24.01;47.50;95505.41;5249689;56;20221;-74
2021/08/06 17:20:48;;;;;;;2.80;1.17;;;;;;;24.12;47.20;95505.00;5247127;56;20176;-74
2021/08/06 17:25:51;;;;;;;2.70;1.90;;;;;;;23.96;48.17;95514.06;5243421;56;20630;-72
2021/08/06 17:30:55;;;;;;;1.75;1.65;;;;;;;23.42;48.77;95505.06;5251785;56;20205;-70
2021/08/06 17:35:59;;;;;;;1.27;1.17;;;;;;;23.19;50.21;95507.13;5239351;56;20643;-73
2021/08/06 17:41:01;;;;;;;1.60;1.50;;;;;;;23.20;49.32;95505.84;5253457;56;20117;-72
2021/08/06 17:46:04;;;;;;;4.22;3.00;;;;;;;23.21;50.18;95510.13;5243419;56;20138;-73
2021/08/06 17:51:08;;;;;;;1.75;1.50;;;;;;;22.96;50.76;95512.03;5265243;56;20188;-72
2021/08/06 17:56:11;;;;;;;1.00;0.90;;;;;;;22.66;49.99;95509.97;5276540;56;20148;-72
2021/08/06 18:01:13;;;;;;;1.13;1.00;;;;;;;22.44;50.71;95504.28;5254015;56;20117;-74
2021/08/06 18:06:16;;;;;;;4.07;1.13;;;;;;;22.25;51.70;95504.66;5242709;56;20143;-73
2021/08/06 18:11:19;;;;;;;3.17;1.38;;;;;;;21.97;51.86;95513.19;5242556;56;20258;-73
2021/08/06 18:16:21;;;;;;;1.23;1.13;;;;;;;21.84;54.60;95513.34;5233327;56;20615;-74
2021/08/06 18:21:23;;;;;;;1.02;0.90;;;;;;;21.53;53.29;95509.59;5262241;56;20851;-72
2021/08/06 18:26:26;;;;;;;1.08;0.93;;;;;;;21.36;55.99;95510.09;5263176;56;20606;-72
2021/08/06 18:31:28;;;;;;;1.15;1.00;;;;;;;21.13;56.22;95502.81;5262792;56;20120;-71
2021/08/06 18:36:33;;;;;;;4.97;1.10;;;;;;;20.83;55.78;95505.38;5258507;56;20112;-72
2021/08/06 18:41:36;;;;;;;1.30;1.15;;;;;;;20.70;57.70;95509.78;5263384;56;20125;-74
2021/08/06 18:46:39;;;;;;;3.97;1.13;;;;;;;20.57;58.32;95514.72;5263089;56;20156;-73
2021/08/06 18:51:42;;;;;;;1.30;1.20;;;;;;;20.41;60.56;95518.69;5263022;56;20116;-73
2021/08/06 18:56:45;;;;;;;1.95;1.17;;;;;;;20.20;62.36;95515.06;5263382;56;20112;-72
2021/08/06 19:01:47;;;;;;;1.95;1.00;;;;;;;20.17;61.99;95518.97;5247486;56;20121;-71
2021/08/06 19:06:49;;;;;;;1.98;1.20;;;;;;;20.08;62.88;95525.06;5262632;56;20138;-72
2021/08/06 19:11:54;;;;;;;1.30;1.20;;;;;;;20.09;63.64;95543.38;5263252;56;20576;-72
2021/08/06 19:16:56;;;;;;;2.33;1.20;;;;;;;20.08;65.73;95544.69;5254434;56;20144;-71
2021/08/06 19:21:59;;;;;;;2.55;1.33;;;;;;;19.43;68.37;95560.31;5261622;56;20120;-70
2021/08/06 19:27:04;;;;;;;3.17;1.48;;;;;;;19.03;67.12;95573.53;5262561;56;20128;-72
2021/08/06 19:32:07;;;;;;;1.27;1.20;;;;;;;18.87;68.34;95562.59;5253664;56;20240;-73
2021/08/06 19:37:10;;;;;;;1.50;1.40;;;;;;;18.71;69.72;95563.63;5252296;56;20235;-70
2021/08/06 19:42:13;;;;;;;2.42;1.58;;;;;;;18.66;69.92;95564.50;5252362;56;20127;-72
2021/08/06 19:47:15;;;;;;;1.58;1.48;;;;;;;18.90;69.61;95569.94;5241590;56;20658;-74
2021/08/06 19:52:17;;;;;;;1.42;1.20;;;;;;;18.91;70.62;95571.44;5260503;56;20199;-72
2021/08/06 19:57:20;;;;;;;1.67;1.30;;;;;;;18.66;71.95;95578.50;5262389;56;20187;-71
2021/08/06 20:02:22;;;;;;;2.78;1.30;;;;;;;18.36;72.80;95568.22;5258107;56;20581;-73
2021/08/06 20:07:25;;;;;;;2.58;1.10;;;;;;;18.52;73.41;95575.63;5262974;56;20607;-71
2021/08/06 20:12:27;;;;;;;2.25;1.40;;;;;;;18.33;74.02;95586.09;5262625;56;20221;-72
2021/08/06 20:17:30;;;;;;;1.40;1.02;;;;;;;17.96;75.27;95582.59;5263253;56;20134;-70
2021/08/06 20:22:39;;;;;;;1.35;1.10;;;;;;;17.92;75.58;95582.88;5245940;56;20749;-72
2021/08/06 20:27:42;;;;;;;1.85;1.15;;;;;;;17.68;76.51;95586.50;5247432;56;20166;-72
2021/08/06 20:32:45;;;;;;;2.17;1.40;;;;;;;17.62;76.32;95593.41;5236488;56;20107;-72
2021/08/06 20:37:47;;;;;;;2.00;1.60;;;;;;;17.57;76.91;95591.44;5262412;56;20129;-71
2021/08/06 20:42:50;;;;;;;2.00;1.50;;;;;;;17.62;76.71;95593.41;5262614;56;20204;-74
2021/08/06 20:47:52;;;;;;;1.45;1.25;;;;;;;17.84;76.18;95593.88;5262230;56;20125;-72
2021/08/06 20:52:55;;;;;;;2.72;1.20;;;;;;;17.57;76.96;95597.03;5261208;56;20116;-75
2021/08/06 20:57:57;;;;;;;3.10;1.15;;;;;;;17.61;76.75;95603.09;5252663;56;20853;-73
2021/08/06 21:02:59;;;;;;;1.42;1.30;;;;;;;17.26;78.25;95595.56;5253034;56;20143;-74
2021/08/06 21:08:04;;;;;;;1.13;1.13;;;;;;;17.23;78.55;95593.06;5252358;56;20151;-72
2021/08/06 21:13:07;;;;;;;2.55;1.05;;;;;;;17.10;78.63;95605.63;5261549;56;20211;-70
2021/08/06 21:18:09;;;;;;;4.55;1.40;;;;;;;17.03;79.29;95609.00;5236583;56;20109;-72
2021/08/06 21:23:12;;;;;;;3.75;1.20;;;;;;;17.11;78.49;95612.75;5248139;56;20124;-73
2021/08/06 21:28:17;;;;;;;3.67;1.20;;;;;;;17.15;78.61;95623.59;5248781;56;20134;-73
2021/08/06 21:33:20;;;;;;;1.58;1.40;;;;;;;17.14;79.13;95619.31;5240460;56;20126;-72
2021/08/06 21:38:22;;;;;;;1.13;1.13;;;;;;;16.94;79.57;95614.16;5229542;56;20138;-73
2021/08/06 21:43:25;;;;;;;1.50;1.40;;;;;;;16.90;78.85;95622.81;5232651;56;20237;-74
2021/08/06 21:48:27;;;;;;;2.72;1.33;;;;;;;16.54;80.32;95626.91;5239080;56;20152;-71
2021/08/06 21:53:29;;;;;;;1.55;1.45;;;;;;;16.72;79.20;95626.28;5232837;56;20112;-71
2021/08/06 21:58:32;;;;;;;1.40;1.30;;;;;;;16.69;79.66;95627.31;5238355;56;20121;-69
2021/08/06 22:03:35;;;;;;;1.48;1.30;;;;;;;16.59;79.93;95639.31;5236874;56;20129;-72
2021/08/06 22:08:38;;;;;;;1.75;1.27;;;;;;;16.55;79.84;95634.03;5233292;56;20141;-72
2021/08/06 22:13:41;;;;;;;1.55;1.38;;;;;;;16.31;80.95;95631.88;5223763;56;20170;-73
2021/08/06 22:18:43;;;;;;;1.70;1.23;;;;;;;16.15;81.90;95640.31;5237826;56;20121;-72
2021/08/06 22:23:45;;;;;;;3.83;1.60;;;;;;;16.22;81.31;95631.41;5246416;56;20135;-71
2021/08/06 22:28:48;;;;;;;4.18;1.20;;;;;;;16.26;80.91;95623.56;5236213;56;20562;-74
2021/08/06 22:33:50;;;;;;;1.50;1.40;;;;;;;16.11;81.83;95637.06;5234775;56;20121;-73
2021/08/06 22:38:52;;;;;;;1.20;1.20;;;;;;;16.13;81.71;95634.50;5226589;56;20156;-72
2021/08/06 22:43:55;;;;;;;1.60;1.50;;;;;;;15.96;82.04;95636.63;5241402;56;20125;-70
2021/08/06 22:48:57;;;;;;;1.42;1.33;;;;;;;16.09;81.59;95628.44;5239922;56;20664;-71
2021/08/06 22:53:59;;;;;;;1.38;1.33;;;;;;;15.85;82.43;95628.34;5243857;56;20209;-71
2021/08/06 22:59:02;;;;;;;1.70;1.60;;;;;;;15.95;82.43;95633.09;5248279;56;20135;-70
2021/08/06 23:04:04;;;;;;;2.25;1.40;;;;;;;15.86;82.20;95624.25;5238411;56;20139;-71
2021/08/06 23:09:06;;;;;;;1.77;1.48;;;;;;;15.68;82.78;95614.47;5240164;56;20157;-71
2021/08/06 23:14:09;;;;;;;1.60;1.50;;;;;;;15.86;81.83;95604.75;5247270;56;20112;-71
2021/08/06 23:19:11;;;;;;;1.48;1.38;;;;;;;15.99;81.60;95591.03;5240569;56;20662;-70
2021/08/06 23:24:14;;;;;;;1.55;1.45;;;;;;;15.66;82.69;95619.78;5241749;56;20122;-70
2021/08/06 23:29:16;;;;;;;2.70;2.10;;;;;;;15.63;82.61;95595.75;5232566;56;20179;-70
2021/08/06 23:34:19;;;;;;;3.05;1.85;;;;;;;15.71;81.90;95591.16;5241644;56;20160;-72
2021/08/06 23:39:21;;;;;;;1.60;1.50;;;;;;;15.63;82.56;95590.94;5241781;56;20135;-72
2021/08/06 23:44:23;;;;;;;3.72;1.60;;;;;;;15.56;83.22;95582.34;5241426;56;20113;-72
2021/08/06 23:49:26;;;;;;;3.45;1.80;;;;;;;15.79;81.41;95578.19;5241522;56;20250;-71